Terminal Aerodrome Forecast
Issued by NWS La Crosse, WI

Home | Current Version | Previous Version | Text Only | Print | Product List | Glossary On
Versions: 1 2 3 4 5 6 7 8 9 10 11 12 13 14 15 16 17 18 19
000
FTUS43 KARX 181720
TAFRST
TAF
KRST 181720Z 1818/1918 12012KT P6SM FEW100
     FM190100 13015KT P6SM SCT200
     FM190900 15018KT P6SM SCT200
     FM191300 17021G28KT P6SM BKN200=

USA.gov is the U.S. government's official web portal to all federal, state and local government web resources and services.